sensor_id;sensor_type;location;lat;lon;timestamp;pressure;altitude;pressure_sealevel;temperature;humidity
67980;BME280;54760;47.490;19.030;2022-07-23T00:00:31;99958.78;;;28.14;39.42
67980;BME280;54760;47.490;19.030;2022-07-23T00:02:57;99961.56;;;27.88;39.85
67980;BME280;54760;47.490;19.030;2022-07-23T00:05:22;99952.72;;;27.71;40.18
67980;BME280;54760;47.490;19.030;2022-07-23T00:07:47;99951.41;;;27.85;39.58
67980;BME280;54760;47.490;19.030;2022-07-23T00:10:13;99956.16;;;27.64;39.89
67980;BME280;54760;47.490;19.030;2022-07-23T00:12:39;99949.22;;;27.51;40.09
67980;BME280;54760;47.490;19.030;2022-07-23T00:15:05;99951.84;;;27.76;39.64
67980;BME280;54760;47.490;19.030;2022-07-23T00:17:31;99950.44;;;27.69;39.52
67980;BME280;54760;47.490;19.030;2022-07-23T00:19:57;99956.19;;;27.90;38.86
67980;BME280;54760;47.490;19.030;2022-07-23T00:22:22;99953.22;;;28.09;38.40
67980;BME280;54760;47.490;19.030;2022-07-23T00:24:48;99950.47;;;28.42;37.49
67980;BME280;54760;47.490;19.030;2022-07-23T00:27:13;99953.63;;;28.39;38.05
67980;BME280;54760;47.490;19.030;2022-07-23T00:29:39;99942.66;;;28.49;38.22
67980;BME280;54760;47.490;19.030;2022-07-23T00:32:04;99951.72;;;28.55;37.32
67980;BME280;54760;47.490;19.030;2022-07-23T00:34:30;99955.78;;;28.80;38.46
67980;BME280;54760;47.490;19.030;2022-07-23T00:36:55;99949.38;;;28.46;37.33
67980;BME280;54760;47.490;19.030;2022-07-23T00:39:21;99956.16;;;28.16;37.92
67980;BME280;54760;47.490;19.030;2022-07-23T00:41:48;99956.94;;;27.90;38.56
67980;BME280;54760;47.490;19.030;2022-07-23T00:44:24;99963.75;;;27.95;38.55
67980;BME280;54760;47.490;19.030;2022-07-23T00:46:55;99959.62;;;27.70;39.00
67980;BME280;54760;47.490;19.030;2022-07-23T00:49:22;99963.84;;;28.29;38.07
67980;BME280;54760;47.490;19.030;2022-07-23T00:51:48;99967.41;;;28.16;37.92
67980;BME280;54760;47.490;19.030;2022-07-23T00:54:15;99965.03;;;28.20;37.93
67980;BME280;54760;47.490;19.030;2022-07-23T00:56:42;99971.72;;;27.91;37.91
67980;BME280;54760;47.490;19.030;2022-07-23T00:59:08;99980.16;;;27.51;38.65
67980;BME280;54760;47.490;19.030;2022-07-23T01:01:33;99974.62;;;27.46;39.14
67980;BME280;54760;47.490;19.030;2022-07-23T01:03:59;99973.25;;;27.79;39.05
67980;BME280;54760;47.490;19.030;2022-07-23T01:06:24;99963.06;;;28.02;38.17
67980;BME280;54760;47.490;19.030;2022-07-23T01:08:50;99967.62;;;27.79;37.83
67980;BME280;54760;47.490;19.030;2022-07-23T01:11:17;99967.53;;;27.97;38.77
67980;BME280;54760;47.490;19.030;2022-07-23T01:13:43;99965.88;;;28.15;37.29
67980;BME280;54760;47.490;19.030;2022-07-23T01:16:09;99967.53;;;27.84;38.46
67980;BME280;54760;47.490;19.030;2022-07-23T01:18:34;99973.28;;;27.66;38.30
67980;BME280;54760;47.490;19.030;2022-07-23T01:21:00;99966.03;;;27.70;38.54
67980;BME280;54760;47.490;19.030;2022-07-23T01:23:25;99964.00;;;27.39;39.34
67980;BME280;54760;47.490;19.030;2022-07-23T01:25:55;99957.13;;;27.92;38.43
67980;BME280;54760;47.490;19.030;2022-07-23T01:28:21;99962.22;;;27.94;38.68
67980;BME280;54760;47.490;19.030;2022-07-23T01:30:47;99966.97;;;28.25;38.26
67980;BME280;54760;47.490;19.030;2022-07-23T01:33:12;99963.06;;;28.28;39.49
67980;BME280;54760;47.490;19.030;2022-07-23T01:35:38;99953.34;;;28.29;38.07
67980;BME280;54760;47.490;19.030;2022-07-23T01:38:03;99963.59;;;28.00;38.67
67980;BME280;54760;47.490;19.030;2022-07-23T01:40:29;99959.19;;;28.18;38.85
67980;BME280;54760;47.490;19.030;2022-07-23T01:42:54;99956.16;;;27.64;39.56
67980;BME280;54760;47.490;19.030;2022-07-23T01:45:20;99956.69;;;27.49;40.51
67980;BME280;54760;47.490;19.030;2022-07-23T01:47:46;99960.94;;;27.55;40.58
67980;BME280;54760;47.490;19.030;2022-07-23T01:50:11;99956.31;;;27.26;41.27
67980;BME280;54760;47.490;19.030;2022-07-23T01:52:37;99958.53;;;27.01;42.01
67980;BME280;54760;47.490;19.030;2022-07-23T01:55:02;99962.53;;;27.06;41.82
67980;BME280;54760;47.490;19.030;2022-07-23T01:57:28;99964.44;;;26.98;41.64
67980;BME280;54760;47.490;19.030;2022-07-23T01:59:53;99960.47;;;27.51;40.57
67980;BME280;54760;47.490;19.030;2022-07-23T02:02:19;99961.09;;;27.44;40.85
67980;BME280;54760;47.490;19.030;2022-07-23T02:04:44;99959.91;;;27.40;40.32
67980;BME280;54760;47.490;19.030;2022-07-23T02:07:10;99958.88;;;27.56;39.41
67980;BME280;54760;47.490;19.030;2022-07-23T02:09:35;99961.72;;;27.24;39.66
67980;BME280;54760;47.490;19.030;2022-07-23T02:12:01;99956.41;;;27.21;39.94
67980;BME280;54760;47.490;19.030;2022-07-23T02:14:26;99955.84;;;27.54;40.19
67980;BME280;54760;47.490;19.030;2022-07-23T02:16:51;99957.19;;;27.34;39.77
67980;BME280;54760;47.490;19.030;2022-07-23T02:19:17;99949.22;;;27.51;39.32
67980;BME280;54760;47.490;19.030;2022-07-23T02:21:42;99963.66;;;27.29;40.03
67980;BME280;54760;47.490;19.030;2022-07-23T02:24:09;99962.03;;;26.89;40.78
67980;BME280;54760;47.490;19.030;2022-07-23T02:26:34;99960.53;;;26.69;41.70
67980;BME280;54760;47.490;19.030;2022-07-23T02:29:01;99954.59;;;26.91;40.93
67980;BME280;54760;47.490;19.030;2022-07-23T02:31:28;99958.78;;;26.66;42.00
67980;BME280;54760;47.490;19.030;2022-07-23T02:33:54;99969.94;;;26.34;42.54
67980;BME280;54760;47.490;19.030;2022-07-23T02:36:20;99959.03;;;26.49;42.51
67980;BME280;54760;47.490;19.030;2022-07-23T02:38:46;99959.19;;;26.38;42.70
67980;BME280;54760;47.490;19.030;2022-07-23T02:41:12;99957.28;;;26.46;42.61
67980;BME280;54760;47.490;19.030;2022-07-23T02:43:37;99959.34;;;26.27;43.07
67980;BME280;54760;47.490;19.030;2022-07-23T02:46:03;99960.84;;;26.65;42.36
67980;BME280;54760;47.490;19.030;2022-07-23T02:48:28;99959.28;;;27.02;42.04
67980;BME280;54760;47.490;19.030;2022-07-23T02:50:54;99959.62;;;26.61;42.00
67980;BME280;54760;47.490;19.030;2022-07-23T02:53:22;99962.69;;;26.63;41.70
67980;BME280;54760;47.490;19.030;2022-07-23T02:55:47;99954.28;;;26.20;42.49
67980;BME280;54760;47.490;19.030;2022-07-23T02:58:12;99958.41;;;26.75;41.66
67980;BME280;54760;47.490;19.030;2022-07-23T03:00:38;99955.31;;;26.41;41.98
67980;BME280;54760;47.490;19.030;2022-07-23T03:03:03;99951.47;;;26.20;42.59
67980;BME280;54760;47.490;19.030;2022-07-23T03:05:28;99954.81;;;26.74;41.42
67980;BME280;54760;47.490;19.030;2022-07-23T03:07:54;99954.16;;;26.50;41.46
67980;BME280;54760;47.490;19.030;2022-07-23T03:10:19;99959.44;;;26.16;42.57
67980;BME280;54760;47.490;19.030;2022-07-23T03:12:45;99961.06;;;26.67;40.97
67980;BME280;54760;47.490;19.030;2022-07-23T03:26:47;99963.78;;;26.17;41.35
67980;BME280;54760;47.490;19.030;2022-07-23T03:29:12;99964.19;;;26.26;41.84
67980;BME280;54760;47.490;19.030;2022-07-23T03:31:38;99969.97;;;26.53;40.63
67980;BME280;54760;47.490;19.030;2022-07-23T03:34:03;99964.94;;;26.27;42.21
67980;BME280;54760;47.490;19.030;2022-07-23T03:36:29;99955.91;;;26.34;41.36
67980;BME280;54760;47.490;19.030;2022-07-23T03:38:54;99958.88;;;26.60;40.88
67980;BME280;54760;47.490;19.030;2022-07-23T03:41:20;99959.09;;;26.62;40.55
67980;BME280;54760;47.490;19.030;2022-07-23T03:43:46;99961.44;;;26.77;40.76
67980;BME280;54760;47.490;19.030;2022-07-23T03:46:12;99965.72;;;26.46;41.11
67980;BME280;54760;47.490;19.030;2022-07-23T03:48:37;99963.28;;;26.37;41.53
67980;BME280;54760;47.490;19.030;2022-07-23T03:51:03;99965.94;;;26.48;41.35
67980;BME280;54760;47.490;19.030;2022-07-23T03:53:29;99970.87;;;26.42;41.74
67980;BME280;54760;47.490;19.030;2022-07-23T03:55:54;99963.59;;;26.52;41.39
67980;BME280;54760;47.490;19.030;2022-07-23T03:58:20;99962.03;;;26.89;41.93
67980;BME280;54760;47.490;19.030;2022-07-23T04:00:45;99961.88;;;27.00;41.11
67980;BME280;54760;47.490;19.030;2022-07-23T04:03:11;99964.53;;;27.24;41.52
67980;BME280;54760;47.490;19.030;2022-07-23T04:05:37;99971.09;;;27.13;40.59
67980;BME280;54760;47.490;19.030;2022-07-23T04:08:02;99967.97;;;26.66;41.76
67980;BME280;54760;47.490;19.030;2022-07-23T04:10:28;99970.72;;;26.53;42.25
67980;BME280;54760;47.490;19.030;2022-07-23T04:12:53;99963.94;;;27.12;41.24
67980;BME280;54760;47.490;19.030;2022-07-23T04:15:18;99961.97;;;27.07;41.88
67980;BME280;54760;47.490;19.030;2022-07-23T04:17:44;99966.06;;;27.38;40.24
67980;BME280;54760;47.490;19.030;2022-07-23T04:20:11;99974.91;;;27.29;39.59
67980;BME280;54760;47.490;19.030;2022-07-23T04:22:36;99977.94;;;26.99;40.42
67980;BME280;54760;47.490;19.030;2022-07-23T04:25:02;99972.72;;;27.22;39.58
67980;BME280;54760;47.490;19.030;2022-07-23T04:27:27;99977.19;;;26.99;40.60
67980;BME280;54760;47.490;19.030;2022-07-23T04:29:53;99985.56;;;26.86;40.29
67980;BME280;54760;47.490;19.030;2022-07-23T04:32:18;99981.16;;;26.71;40.58
67980;BME280;54760;47.490;19.030;2022-07-23T04:34:44;99977.84;;;26.73;40.46
67980;BME280;54760;47.490;19.030;2022-07-23T04:37:09;99977.84;;;26.92;40.31
67980;BME280;54760;47.490;19.030;2022-07-23T04:39:34;99978.69;;;26.68;41.87
67980;BME280;54760;47.490;19.030;2022-07-23T04:42:00;99986.37;;;26.99;40.96
67980;BME280;54760;47.490;19.030;2022-07-23T04:44:25;99980.94;;;27.20;40.49
67980;BME280;54760;47.490;19.030;2022-07-23T04:46:51;99983.34;;;27.29;40.31
67980;BME280;54760;47.490;19.030;2022-07-23T04:49:17;99983.16;;;27.40;40.38
67980;BME280;54760;47.490;19.030;2022-07-23T04:51:42;99981.62;;;27.39;40.02
67980;BME280;54760;47.490;19.030;2022-07-23T04:54:07;99984.88;;;27.43;39.97
67980;BME280;54760;47.490;19.030;2022-07-23T04:56:33;99986.31;;;27.18;40.54
67980;BME280;54760;47.490;19.030;2022-07-23T04:58:58;99993.75;;;27.02;40.68
67980;BME280;54760;47.490;19.030;2022-07-23T05:01:23;99991.16;;;26.86;41.08
67980;BME280;54760;47.490;19.030;2022-07-23T05:03:49;99983.50;;;27.05;40.79
67980;BME280;54760;47.490;19.030;2022-07-23T05:06:15;99985.09;;;27.45;40.17
67980;BME280;54760;47.490;19.030;2022-07-23T05:08:40;99982.75;;;27.63;39.78
67980;BME280;54760;47.490;19.030;2022-07-23T05:11:05;99986.22;;;27.55;40.09
67980;BME280;54760;47.490;19.030;2022-07-23T05:13:31;99988.81;;;27.67;40.44
67980;BME280;54760;47.490;19.030;2022-07-23T05:15:56;99988.59;;;27.51;41.62
67980;BME280;54760;47.490;19.030;2022-07-23T05:18:21;99971.72;;;27.91;41.02
67980;BME280;54760;47.490;19.030;2022-07-23T05:20:47;99986.00;;;27.67;41.99
67980;BME280;54760;47.490;19.030;2022-07-23T05:23:12;99985.37;;;27.61;41.66
67980;BME280;54760;47.490;19.030;2022-07-23T05:25:38;99969.38;;;27.95;39.77
67980;BME280;54760;47.490;19.030;2022-07-23T05:28:03;99970.44;;;27.92;39.41
67980;BME280;54760;47.490;19.030;2022-07-23T05:30:28;99980.06;;;28.23;38.54
67980;BME280;54760;47.490;19.030;2022-07-23T05:32:54;99981.91;;;28.33;38.85
67980;BME280;54760;47.490;19.030;2022-07-23T05:35:19;99982.84;;;28.49;37.97
67980;BME280;54760;47.490;19.030;2022-07-23T05:37:45;99982.09;;;28.35;37.77
67980;BME280;54760;47.490;19.030;2022-07-23T05:40:11;99978.94;;;28.52;37.07
67980;BME280;54760;47.490;19.030;2022-07-23T05:42:38;99980.44;;;28.53;36.83
67980;BME280;54760;47.490;19.030;2022-07-23T05:45:04;99985.03;;;28.77;36.65
67980;BME280;54760;47.490;19.030;2022-07-23T05:47:44;99980.72;;;28.76;36.58
67980;BME280;54760;47.490;19.030;2022-07-23T05:50:10;99980.25;;;28.85;36.23
67980;BME280;54760;47.490;19.030;2022-07-23T05:52:36;99977.63;;;28.87;35.81
67980;BME280;54760;47.490;19.030;2022-07-23T05:55:02;99981.81;;;28.94;35.41
67980;BME280;54760;47.490;19.030;2022-07-23T05:57:27;99976.41;;;28.96;35.24
67980;BME280;54760;47.490;19.030;2022-07-23T05:59:53;99974.34;;;29.38;35.11
67980;BME280;54760;47.490;19.030;2022-07-23T06:02:18;99986.72;;;29.35;34.89
67980;BME280;54760;47.490;19.030;2022-07-23T06:04:43;99978.56;;;29.52;34.71
67980;BME280;54760;47.490;19.030;2022-07-23T06:07:09;99978.19;;;29.48;34.22
67980;BME280;54760;47.490;19.030;2022-07-23T06:09:34;99985.19;;;30.47;31.90
67980;BME280;54760;47.490;19.030;2022-07-23T06:11:59;99977.00;;;31.86;29.95
67980;BME280;54760;47.490;19.030;2022-07-23T06:14:25;99962.56;;;32.94;28.48
67980;BME280;54760;47.490;19.030;2022-07-23T06:16:50;99964.25;;;33.22;29.93
67980;BME280;54760;47.490;19.030;2022-07-23T06:19:16;99966.06;;;33.76;27.86
67980;BME280;54760;47.490;19.030;2022-07-23T06:21:41;99960.53;;;33.96;27.86
67980;BME280;54760;47.490;19.030;2022-07-23T06:24:07;99967.25;;;33.66;28.40
67980;BME280;54760;47.490;19.030;2022-07-23T06:26:32;99959.31;;;33.47;28.93
67980;BME280;54760;47.490;19.030;2022-07-23T06:28:57;99960.94;;;33.08;28.68
67980;BME280;54760;47.490;19.030;2022-07-23T06:31:23;99964.41;;;32.34;29.72
67980;BME280;54760;47.490;19.030;2022-07-23T06:33:48;99963.81;;;32.36;31.30
67980;BME280;54760;47.490;19.030;2022-07-23T06:36:14;99961.19;;;31.75;30.65
67980;BME280;54760;47.490;19.030;2022-07-23T06:38:39;99970.47;;;31.60;31.01
67980;BME280;54760;47.490;19.030;2022-07-23T06:41:04;99964.59;;;31.66;31.92
67980;BME280;54760;47.490;19.030;2022-07-23T06:43:30;99963.84;;;31.50;31.24
67980;BME280;54760;47.490;19.030;2022-07-23T06:45:56;99963.28;;;31.59;32.43
67980;BME280;54760;47.490;19.030;2022-07-23T06:48:21;99962.91;;;31.55;31.75
67980;BME280;54760;47.490;19.030;2022-07-23T06:50:47;99965.34;;;31.59;32.57
67980;BME280;54760;47.490;19.030;2022-07-23T06:53:13;99957.03;;;31.53;32.91
67980;BME280;54760;47.490;19.030;2022-07-23T06:55:38;99961.19;;;31.52;32.09
67980;BME280;54760;47.490;19.030;2022-07-23T06:58:05;99959.69;;;31.44;32.33
67980;BME280;54760;47.490;19.030;2022-07-23T07:00:30;99963.28;;;31.44;32.46
67980;BME280;54760;47.490;19.030;2022-07-23T07:02:57;99962.34;;;31.34;32.10
67980;BME280;54760;47.490;19.030;2022-07-23T07:05:23;99959.69;;;31.59;31.89
67980;BME280;54760;47.490;19.030;2022-07-23T07:07:50;99957.25;;;31.70;31.72
67980;BME280;54760;47.490;19.030;2022-07-23T07:10:15;99951.00;;;31.72;31.64
67980;BME280;54760;47.490;19.030;2022-07-23T07:12:42;99943.81;;;31.78;31.55
67980;BME280;54760;47.490;19.030;2022-07-23T07:15:08;99951.50;;;32.01;31.16
67980;BME280;54760;47.490;19.030;2022-07-23T07:17:33;99948.47;;;31.99;30.83
67980;BME280;54760;47.490;19.030;2022-07-23T07:19:59;99942.66;;;31.81;30.84
67980;BME280;54760;47.490;19.030;2022-07-23T07:22:24;99942.22;;;32.08;30.91
67980;BME280;54760;47.490;19.030;2022-07-23T07:24:50;99943.69;;;32.24;30.63
67980;BME280;54760;47.490;19.030;2022-07-23T07:27:15;99930.44;;;32.27;30.27
67980;BME280;54760;47.490;19.030;2022-07-23T07:29:40;99920.59;;;32.35;30.05
67980;BME280;54760;47.490;19.030;2022-07-23T07:32:07;99929.97;;;32.45;30.06
67980;BME280;54760;47.490;19.030;2022-07-23T07:34:33;99928.62;;;32.46;30.17
67980;BME280;54760;47.490;19.030;2022-07-23T07:36:58;99934.78;;;32.67;30.25
67980;BME280;54760;47.490;19.030;2022-07-23T07:39:23;99932.84;;;32.70;30.08
67980;BME280;54760;47.490;19.030;2022-07-23T07:41:49;99929.34;;;32.87;29.66
67980;BME280;54760;47.490;19.030;2022-07-23T07:44:14;99932.00;;;32.85;29.65
67980;BME280;54760;47.490;19.030;2022-07-23T07:46:39;99928.94;;;32.90;29.27
67980;BME280;54760;47.490;19.030;2022-07-23T07:49:05;99928.53;;;33.19;29.18
67980;BME280;54760;47.490;19.030;2022-07-23T07:51:30;99932.50;;;33.40;28.85
67980;BME280;54760;47.490;19.030;2022-07-23T07:53:56;99934.63;;;33.57;29.04
67980;BME280;54760;47.490;19.030;2022-07-23T07:56:21;99927.47;;;33.73;27.95
67980;BME280;54760;47.490;19.030;2022-07-23T07:58:46;99926.13;;;33.74;27.81
67980;BME280;54760;47.490;19.030;2022-07-23T08:01:12;99929.22;;;33.86;28.23
67980;BME280;54760;47.490;19.030;2022-07-23T08:03:37;99927.78;;;33.94;27.38
67980;BME280;54760;47.490;19.030;2022-07-23T08:06:03;99925.44;;;34.18;27.58
67980;BME280;54760;47.490;19.030;2022-07-23T08:08:28;99923.09;;;34.07;28.39
67980;BME280;54760;47.490;19.030;2022-07-23T08:10:53;99927.59;;;34.27;27.57
67980;BME280;54760;47.490;19.030;2022-07-23T08:13:19;99927.69;;;34.19;27.38
67980;BME280;54760;47.490;19.030;2022-07-23T08:15:44;99930.16;;;34.32;27.08
67980;BME280;54760;47.490;19.030;2022-07-23T08:18:09;99926.50;;;34.22;27.47
67980;BME280;54760;47.490;19.030;2022-07-23T08:20:35;99920.31;;;34.33;26.94
67980;BME280;54760;47.490;19.030;2022-07-23T08:23:07;99925.13;;;34.41;27.43
67980;BME280;54760;47.490;19.030;2022-07-23T08:25:36;99929.31;;;34.40;26.43
67980;BME280;54760;47.490;19.030;2022-07-23T08:28:04;99921.81;;;34.61;25.93
67980;BME280;54760;47.490;19.030;2022-07-23T08:30:31;99922.34;;;34.77;25.97
67980;BME280;54760;47.490;19.030;2022-07-23T08:35:29;99923.75;;;34.59;26.23
67980;BME280;54760;47.490;19.030;2022-07-23T08:37:56;99918.47;;;34.82;26.38
67980;BME280;54760;47.490;19.030;2022-07-23T08:40:24;99921.84;;;34.98;25.99
67980;BME280;54760;47.490;19.030;2022-07-23T08:42:51;99920.62;;;35.01;25.41
67980;BME280;54760;47.490;19.030;2022-07-23T08:45:18;99919.63;;;35.15;25.77
67980;BME280;54760;47.490;19.030;2022-07-23T08:47:50;99926.28;;;35.18;25.46
67980;BME280;54760;47.490;19.030;2022-07-23T08:50:16;99926.88;;;35.26;25.17
67980;BME280;54760;47.490;19.030;2022-07-23T08:52:42;99928.22;;;35.25;26.45
67980;BME280;54760;47.490;19.030;2022-07-23T08:55:08;99919.88;;;35.37;26.04
67980;BME280;54760;47.490;19.030;2022-07-23T08:57:34;99918.97;;;35.44;24.53
67980;BME280;54760;47.490;19.030;2022-07-23T08:59:59;99920.47;;;35.54;24.76
67980;BME280;54760;47.490;19.030;2022-07-23T09:02:25;99918.72;;;35.69;25.38
67980;BME280;54760;47.490;19.030;2022-07-23T09:04:50;99910.88;;;35.59;24.97
67980;BME280;54760;47.490;19.030;2022-07-23T09:07:15;99903.41;;;35.83;25.13
67980;BME280;54760;47.490;19.030;2022-07-23T09:09:41;99902.37;;;35.88;24.73
67980;BME280;54760;47.490;19.030;2022-07-23T09:12:09;99908.50;;;36.04;25.47
67980;BME280;54760;47.490;19.030;2022-07-23T09:14:45;99905.50;;;36.12;24.90
67980;BME280;54760;47.490;19.030;2022-07-23T09:17:17;99912.28;;;36.16;24.33
67980;BME280;54760;47.490;19.030;2022-07-23T09:19:44;99908.03;;;36.08;24.58
67980;BME280;54760;47.490;19.030;2022-07-23T09:22:20;99908.81;;;36.18;23.66
67980;BME280;54760;47.490;19.030;2022-07-23T09:25:06;99906.97;;;36.32;23.30
67980;BME280;54760;47.490;19.030;2022-07-23T09:27:50;99898.16;;;36.18;23.22
67980;BME280;54760;47.490;19.030;2022-07-23T09:30:16;99902.50;;;36.29;23.55
67980;BME280;54760;47.490;19.030;2022-07-23T09:32:42;99908.00;;;36.36;23.75
67980;BME280;54760;47.490;19.030;2022-07-23T09:35:08;99899.63;;;36.38;23.93
67980;BME280;54760;47.490;19.030;2022-07-23T09:37:33;99894.09;;;36.31;23.37
67980;BME280;54760;47.490;19.030;2022-07-23T09:40:07;99905.00;;;36.44;22.75
67980;BME280;54760;47.490;19.030;2022-07-23T09:42:34;99900.75;;;36.64;23.80
67980;BME280;54760;47.490;19.030;2022-07-23T09:44:59;99901.50;;;36.65;23.24
67980;BME280;54760;47.490;19.030;2022-07-23T09:47:30;99905.56;;;36.52;23.09
67980;BME280;54760;47.490;19.030;2022-07-23T09:52:29;99888.56;;;36.73;23.77
67980;BME280;54760;47.490;19.030;2022-07-23T09:54:59;99894.16;;;36.93;23.46
67980;BME280;54760;47.490;19.030;2022-07-23T09:57:25;99891.97;;;36.81;22.91
67980;BME280;54760;47.490;19.030;2022-07-23T09:59:52;99889.25;;;36.43;23.34
67980;BME280;54760;47.490;19.030;2022-07-23T10:02:18;99882.47;;;36.88;23.17
67980;BME280;54760;47.490;19.030;2022-07-23T10:04:43;99880.72;;;36.83;22.81
67980;BME280;54760;47.490;19.030;2022-07-23T10:07:10;99872.09;;;37.24;23.04
67980;BME280;54760;47.490;19.030;2022-07-23T10:09:40;99871.94;;;37.22;22.74
67980;BME280;54760;47.490;19.030;2022-07-23T10:12:13;99871.25;;;37.12;21.67
67980;BME280;54760;47.490;19.030;2022-07-23T10:14:59;99869.63;;;37.09;22.01
67980;BME280;54760;47.490;19.030;2022-07-23T10:17:27;99875.28;;;36.87;22.43
67980;BME280;54760;47.490;19.030;2022-07-23T10:19:52;99872.81;;;37.24;21.96
67980;BME280;54760;47.490;19.030;2022-07-23T10:22:27;99864.63;;;37.19;21.76
67980;BME280;54760;47.490;19.030;2022-07-23T10:30:45;99867.03;;;37.34;22.44
67980;BME280;54760;47.490;19.030;2022-07-23T10:38:52;99857.09;;;37.78;21.36
67980;BME280;54760;47.490;19.030;2022-07-23T10:41:37;99854.94;;;37.66;22.00
67980;BME280;54760;47.490;19.030;2022-07-23T10:46:31;99852.59;;;37.74;20.93
67980;BME280;54760;47.490;19.030;2022-07-23T10:54:41;99846.63;;;37.49;21.06
67980;BME280;54760;47.490;19.030;2022-07-23T10:57:08;99846.09;;;37.41;21.00
67980;BME280;54760;47.490;19.030;2022-07-23T11:02:24;99832.47;;;38.05;20.65
67980;BME280;54760;47.490;19.030;2022-07-23T11:04:52;99825.28;;;38.16;20.35
67980;BME280;54760;47.490;19.030;2022-07-23T11:07:17;99823.03;;;38.03;19.54
67980;BME280;54760;47.490;19.030;2022-07-23T11:09:43;99818.81;;;38.15;19.79
67980;BME280;54760;47.490;19.030;2022-07-23T11:17:23;99806.16;;;38.30;19.29
67980;BME280;54760;47.490;19.030;2022-07-23T11:22:46;99826.50;;;38.13;19.49
67980;BME280;54760;47.490;19.030;2022-07-23T11:27:47;99800.44;;;38.19;19.35
67980;BME280;54760;47.490;19.030;2022-07-23T11:30:38;99804.50;;;38.04;19.04
67980;BME280;54760;47.490;19.030;2022-07-23T11:35:33;99797.44;;;38.28;18.78
67980;BME280;54760;47.490;19.030;2022-07-23T11:40:37;99796.59;;;38.37;18.92
67980;BME280;54760;47.490;19.030;2022-07-23T11:43:05;99794.00;;;38.65;19.19
67980;BME280;54760;47.490;19.030;2022-07-23T11:45:37;99786.66;;;38.38;18.40
67980;BME280;54760;47.490;19.030;2022-07-23T11:48:04;99781.81;;;38.41;17.93
67980;BME280;54760;47.490;19.030;2022-07-23T11:50:30;99782.31;;;38.61;18.36
67980;BME280;54760;47.490;19.030;2022-07-23T11:52:55;99772.72;;;38.79;18.84
67980;BME280;54760;47.490;19.030;2022-07-23T11:55:21;99783.78;;;38.62;18.98
67980;BME280;54760;47.490;19.030;2022-07-23T11:57:47;99765.97;;;38.86;18.96
67980;BME280;54760;47.490;19.030;2022-07-23T12:00:21;99767.19;;;39.07;18.61
67980;BME280;54760;47.490;19.030;2022-07-23T12:02:49;99762.38;;;38.97;18.04
67980;BME280;54760;47.490;19.030;2022-07-23T12:05:18;99761.28;;;39.16;18.21
67980;BME280;54760;47.490;19.030;2022-07-23T12:07:46;99759.31;;;39.19;18.75
67980;BME280;54760;47.490;19.030;2022-07-23T12:10:21;99755.72;;;39.07;18.39
67980;BME280;54760;47.490;19.030;2022-07-23T12:12:49;99750.28;;;38.99;18.45
67980;BME280;54760;47.490;19.030;2022-07-23T12:15:18;99745.19;;;38.86;19.05
67980;BME280;54760;47.490;19.030;2022-07-23T12:17:46;99742.94;;;38.96;19.26
67980;BME280;54760;47.490;19.030;2022-07-23T12:20:14;99743.59;;;39.20;18.82
67980;BME280;54760;47.490;19.030;2022-07-23T12:22:45;99748.47;;;39.17;18.81
67980;BME280;54760;47.490;19.030;2022-07-23T12:25:17;99739.66;;;39.13;18.28
67980;BME280;54760;47.490;19.030;2022-07-23T12:27:43;99728.78;;;38.98;18.64
67980;BME280;54760;47.490;19.030;2022-07-23T12:30:28;99735.50;;;38.91;17.59
67980;BME280;54760;47.490;19.030;2022-07-23T12:32:57;99732.91;;;38.95;17.67
67980;BME280;54760;47.490;19.030;2022-07-23T12:35:29;99726.72;;;38.75;18.93
67980;BME280;54760;47.490;19.030;2022-07-23T12:38:03;99717.44;;;39.00;18.57
67980;BME280;54760;47.490;19.030;2022-07-23T12:43:06;99725.91;;;38.98;18.21
67980;BME280;54760;47.490;19.030;2022-07-23T12:45:46;99712.91;;;38.72;17.64
67980;BME280;54760;47.490;19.030;2022-07-23T12:48:35;99711.19;;;38.43;18.39
67980;BME280;54760;47.490;19.030;2022-07-23T12:53:47;99709.44;;;38.62;17.88
67980;BME280;54760;47.490;19.030;2022-07-23T12:56:18;99708.69;;;38.61;17.98
67980;BME280;54760;47.490;19.030;2022-07-23T12:58:48;99703.31;;;38.79;18.23
67980;BME280;54760;47.490;19.030;2022-07-23T13:06:20;99694.09;;;38.92;18.43
67980;BME280;54760;47.490;19.030;2022-07-23T13:08:45;99696.53;;;38.37;19.14
67980;BME280;54760;47.490;19.030;2022-07-23T13:11:10;99686.97;;;38.33;19.85
67980;BME280;54760;47.490;19.030;2022-07-23T13:13:36;99690.84;;;38.49;19.28
67980;BME280;54760;47.490;19.030;2022-07-23T13:16:02;99684.22;;;38.46;19.46
67980;BME280;54760;47.490;19.030;2022-07-23T13:18:28;99691.34;;;38.45;19.29
67980;BME280;54760;47.490;19.030;2022-07-23T13:20:54;99685.34;;;38.53;19.87
67980;BME280;54760;47.490;19.030;2022-07-23T13:23:20;99689.34;;;38.36;19.39
67980;BME280;54760;47.490;19.030;2022-07-23T13:25:46;99678.44;;;38.21;19.65
67980;BME280;54760;47.490;19.030;2022-07-23T13:28:13;99678.41;;;38.33;19.37
67980;BME280;54760;47.490;19.030;2022-07-23T13:30:40;99687.81;;;38.58;20.14
67980;BME280;54760;47.490;19.030;2022-07-23T13:33:06;99670.72;;;38.84;19.87
67980;BME280;54760;47.490;19.030;2022-07-23T13:35:32;99657.34;;;39.00;18.74
67980;BME280;54760;47.490;19.030;2022-07-23T13:37:58;99659.97;;;38.96;18.58
67980;BME280;54760;47.490;19.030;2022-07-23T13:40:24;99646.94;;;38.81;18.78
67980;BME280;54760;47.490;19.030;2022-07-23T13:42:49;99647.69;;;38.82;19.33
67980;BME280;54760;47.490;19.030;2022-07-23T13:45:15;99649.75;;;38.68;19.47
67980;BME280;54760;47.490;19.030;2022-07-23T13:47:40;99649.16;;;38.57;19.05
67980;BME280;54760;47.490;19.030;2022-07-23T13:50:06;99649.75;;;38.68;18.90
67980;BME280;54760;47.490;19.030;2022-07-23T13:52:31;99643.94;;;38.66;19.21